createdAt,value
2023-11-07T00:01:44.682Z,100.00
2023-11-07T00:04:13.746Z,100.00
2023-11-07T00:06:43.781Z,100.00
2023-11-07T00:09:13.488Z,100.00
2023-11-07T00:11:41.999Z,100.00
2023-11-07T00:14:10.482Z,100.00
2023-11-07T00:16:38.962Z,100.00
2023-11-07T00:19:08.842Z,100.00
2023-11-07T00:21:38.238Z,100.00
2023-11-07T00:24:09.482Z,100.00
2023-11-07T00:26:38.259Z,100.00
2023-11-07T00:29:07.921Z,100.00
2023-11-07T00:31:36.535Z,100.00
2023-11-07T00:34:05.648Z,100.00
2023-11-07T00:36:34.512Z,100.00
2023-11-07T00:39:03.376Z,100.00
2023-11-07T00:41:33.577Z,100.00
2023-11-07T00:44:03.117Z,100.00
2023-11-07T00:46:31.600Z,100.00
2023-11-07T00:49:00.529Z,100.00
2023-11-07T00:51:29.114Z,100.00
2023-11-07T00:53:57.572Z,100.00
2023-11-07T00:56:26.219Z,100.00
2023-11-07T00:58:56.073Z,100.00
2023-11-07T01:01:24.613Z,100.00
2023-11-07T01:03:53.264Z,100.00
2023-11-07T01:06:22.275Z,100.00
2023-11-07T01:08:50.735Z,100.00
2023-11-07T01:11:20.822Z,100.00
2023-11-07T01:13:49.583Z,100.00
2023-11-07T01:16:19.765Z,100.00
2023-11-07T01:18:48.784Z,100.00
2023-11-07T01:21:17.450Z,100.00
2023-11-07T01:23:45.958Z,100.00
2023-11-07T01:26:14.378Z,100.00
2023-11-07T01:28:43.608Z,100.00
2023-11-07T01:31:12.157Z,100.00
2023-11-07T01:33:42.472Z,100.00
2023-11-07T01:36:12.493Z,100.00
2023-11-07T01:38:40.980Z,100.00
2023-11-07T01:41:09.552Z,100.00
2023-11-07T01:43:38.096Z,100.00
2023-11-07T01:46:07.998Z,100.00
2023-11-07T01:48:37.633Z,100.00
2023-11-07T01:51:10.618Z,100.00
2023-11-07T01:53:39.212Z,100.00
2023-11-07T01:56:09.579Z,100.00
2023-11-07T01:58:38.980Z,100.00
2023-11-07T02:01:07.671Z,100.00
2023-11-07T02:03:38.174Z,100.00
2023-11-07T02:06:09.747Z,100.00
2023-11-07T02:08:38.841Z,100.00
2023-11-07T02:11:07.781Z,100.00
2023-11-07T02:13:38.025Z,100.00
2023-11-07T02:16:07.698Z,100.00
2023-11-07T02:18:36.312Z,100.00
2023-11-07T02:21:05.218Z,100.00
2023-11-07T02:23:35.778Z,100.00
2023-11-07T02:26:04.585Z,100.00
2023-11-07T02:28:33.742Z,100.00
2023-11-07T02:31:02.172Z,100.00
2023-11-07T02:33:31.238Z,100.00
2023-11-07T02:36:00.287Z,100.00
2023-11-07T02:38:30.322Z,100.00
2023-11-07T02:41:00.363Z,100.00
2023-11-07T02:43:29.213Z,100.00
2023-11-07T02:45:57.757Z,100.00
2023-11-07T02:48:26.248Z,100.00
2023-11-07T02:50:54.962Z,100.00
2023-11-07T02:53:23.886Z,100.00
2023-11-07T02:55:53.442Z,100.00
2023-11-07T02:58:25.216Z,100.00
2023-11-07T03:00:53.827Z,100.00
2023-11-07T03:03:22.808Z,100.00
2023-11-07T03:05:51.318Z,100.00
2023-11-07T03:08:20.063Z,100.00
2023-11-07T03:10:48.435Z,100.00
2023-11-07T03:13:19.374Z,100.00
2023-11-07T03:15:49.361Z,100.00
2023-11-07T03:18:18.044Z,100.00
2023-11-07T03:20:46.744Z,100.00
2023-11-07T03:23:15.168Z,100.00
2023-11-07T03:25:43.562Z,100.00
2023-11-07T03:28:12.993Z,100.00
2023-11-07T03:30:42.527Z,100.00
2023-11-07T03:33:12.465Z,100.00
2023-11-07T03:35:40.968Z,100.00
2023-11-07T03:38:09.427Z,100.00
2023-11-07T03:40:37.960Z,100.00
2023-11-07T03:43:06.882Z,100.00
2023-11-07T03:45:35.299Z,100.00
2023-11-07T03:48:03.858Z,100.00
2023-11-07T03:50:33.794Z,100.00
2023-11-07T03:53:02.182Z,100.00
2023-11-07T03:55:30.565Z,100.00
2023-11-07T03:57:58.941Z,100.00
2023-11-07T04:00:27.318Z,100.00
2023-11-07T04:02:55.999Z,100.00
2023-11-07T04:05:24.618Z,100.00
2023-11-07T04:07:54.396Z,100.00
2023-11-07T04:10:22.981Z,100.00
2023-11-07T04:12:52.097Z,100.00
2023-11-07T04:15:23.671Z,100.00
2023-11-07T04:17:53.949Z,100.00
2023-11-07T04:20:24.237Z,100.00
2023-11-07T04:22:55.652Z,100.00
2023-11-07T04:25:24.094Z,100.00
2023-11-07T04:27:53.053Z,100.00
2023-11-07T04:30:21.667Z,100.00
2023-11-07T04:32:50.161Z,100.00
2023-11-07T04:35:18.769Z,100.00
2023-11-07T04:37:47.276Z,100.00
2023-11-07T04:40:20.280Z,100.00
2023-11-07T04:42:49.067Z,100.00
2023-11-07T04:45:20.445Z,100.00
2023-11-07T04:47:50.663Z,100.00
2023-11-07T04:50:19.333Z,100.00
2023-11-07T04:52:48.498Z,100.00
2023-11-07T04:55:19.523Z,100.00
2023-11-07T04:57:47.855Z,100.00
2023-11-07T05:00:17.184Z,100.00
2023-11-07T05:02:47.279Z,100.00
2023-11-07T05:05:15.889Z,100.00
2023-11-07T05:07:46.410Z,100.00
2023-11-07T05:10:15.545Z,100.00
2023-11-07T05:12:45.344Z,100.00
2023-11-07T05:15:14.082Z,100.00
2023-11-07T05:17:42.663Z,100.00
2023-11-07T05:20:15.130Z,100.00
2023-11-07T05:22:43.924Z,100.00
2023-11-07T05:25:12.994Z,100.00
2023-11-07T05:27:41.922Z,100.00
2023-11-07T05:30:15.659Z,100.00
2023-11-07T05:32:48.191Z,100.00
2023-11-07T05:35:16.839Z,100.00
2023-11-07T05:37:47.127Z,100.00
2023-11-07T05:40:17.031Z,100.00
2023-11-07T05:42:45.660Z,100.00
2023-11-07T05:45:16.297Z,100.00
2023-11-07T05:47:45.647Z,100.00
2023-11-07T05:50:14.320Z,100.00
2023-11-07T05:52:42.951Z,100.00
2023-11-07T05:55:13.174Z,100.00
2023-11-07T05:57:41.825Z,100.00
2023-11-07T06:00:15.086Z,100.00
2023-11-07T06:02:44.966Z,100.00
2023-11-07T06:05:13.481Z,100.00
2023-11-07T06:07:41.932Z,100.00
2023-11-07T06:10:10.803Z,100.00
2023-11-07T06:12:39.613Z,100.00
2023-11-07T06:15:11.899Z,100.00
2023-11-07T06:17:40.385Z,100.00
2023-11-07T06:20:11.589Z,100.00
2023-11-07T06:22:39.976Z,100.00
2023-11-07T06:25:11.246Z,100.00
2023-11-07T06:27:39.588Z,100.00
2023-11-07T06:30:10.774Z,100.00
2023-11-07T06:32:40.186Z,100.00
2023-11-07T06:35:11.580Z,100.00
2023-11-07T06:37:40.696Z,100.00
2023-11-07T06:40:17.351Z,100.00
2023-11-07T06:42:48.239Z,100.00
2023-11-07T06:45:17.372Z,100.00
2023-11-07T06:47:47.839Z,100.00
2023-11-07T06:50:18.099Z,100.00
2023-11-07T06:52:53.314Z,100.00
2023-11-07T06:55:26.081Z,100.00
2023-11-07T06:57:56.699Z,100.00
2023-11-07T07:00:27.393Z,100.00
2023-11-07T07:02:58.444Z,100.00
2023-11-07T07:05:29.392Z,100.00
2023-11-07T07:07:59.228Z,100.00
2023-11-07T07:10:27.612Z,100.00
2023-11-07T07:12:56.106Z,100.00
2023-11-07T07:15:25.119Z,100.00
2023-11-07T07:17:53.804Z,100.00
2023-11-07T07:20:22.384Z,100.00
2023-11-07T07:22:54.311Z,100.00
2023-11-07T07:25:28.166Z,100.00
2023-11-07T07:27:56.848Z,100.00
2023-11-07T07:30:27.692Z,100.00
2023-11-07T07:32:57.078Z,100.00
2023-11-07T07:35:30.792Z,100.00
2023-11-07T07:38:04.406Z,100.00
2023-11-07T07:40:33.522Z,100.00
2023-11-07T07:43:10.914Z,100.00
2023-11-07T07:45:44.034Z,100.00
2023-11-07T07:48:13.251Z,100.00
2023-11-07T07:50:44.200Z,100.00
2023-11-07T07:53:16.364Z,100.00
2023-11-07T07:55:45.885Z,100.00
2023-11-07T07:58:20.362Z,100.00
2023-11-07T08:00:50.962Z,100.00
2023-11-07T08:03:19.963Z,100.00
2023-11-07T08:05:48.874Z,100.00
2023-11-07T08:08:19.201Z,100.00
2023-11-07T08:10:49.917Z,100.00
2023-11-07T08:13:19.943Z,100.00
2023-11-07T08:15:51.304Z,100.00
2023-11-07T08:18:20.374Z,100.00
2023-11-07T08:20:51.535Z,100.00
2023-11-07T08:23:22.172Z,100.00
2023-11-07T08:25:51.471Z,100.00
2023-11-07T08:28:19.944Z,93.13
2023-11-07T08:30:48.337Z,88.02
2023-11-07T08:33:16.934Z,84.82
2023-11-07T08:35:45.479Z,82.11
2023-11-07T08:38:14.022Z,75.86
2023-11-07T08:40:43.701Z,73.44
2023-11-07T08:43:13.758Z,73.47
2023-11-07T08:45:42.435Z,80.19
2023-11-07T08:48:11.591Z,85.16
2023-11-07T08:50:40.382Z,90.77
2023-11-07T08:53:08.823Z,92.68
2023-11-07T08:55:37.782Z,97.88
2023-11-07T08:58:07.813Z,91.49
2023-11-07T09:00:36.220Z,90.91
2023-11-07T09:03:05.431Z,93.37
2023-11-07T09:05:34.095Z,87.18
2023-11-07T09:08:05.670Z,89.11
2023-11-07T09:10:34.095Z,87.86
2023-11-07T09:13:04.094Z,91.33
2023-11-07T09:15:33.868Z,98.91
2023-11-07T09:18:02.349Z,100.00
2023-11-07T09:20:30.983Z,100.00
2023-11-07T09:22:59.328Z,100.00
2023-11-07T09:25:27.748Z,100.00
2023-11-07T09:27:56.097Z,100.00
2023-11-07T09:30:24.502Z,100.00
2023-11-07T09:32:54.730Z,100.00
2023-11-07T09:35:24.125Z,100.00
2023-11-07T09:37:52.600Z,100.00
2023-11-07T09:40:24.401Z,100.00
2023-11-07T09:42:55.851Z,100.00
2023-11-07T09:45:25.221Z,100.00
2023-11-07T09:47:57.421Z,100.00
2023-11-07T09:50:26.425Z,100.00
2023-11-07T09:52:56.293Z,100.00
2023-11-07T09:55:31.061Z,100.00
2023-11-07T09:58:15.039Z,100.00
2023-11-07T10:00:46.701Z,100.00
2023-11-07T10:03:18.028Z,100.00
2023-11-07T10:05:49.655Z,100.00
2023-11-07T10:08:18.792Z,100.00
2023-11-07T10:11:11.720Z,100.00
2023-11-07T10:13:41.215Z,100.00
2023-11-07T10:18:51.503Z,100.00
2023-11-07T10:21:33.066Z,100.00
2023-11-07T10:24:01.818Z,100.00
2023-11-07T10:26:31.448Z,100.00
2023-11-07T10:29:17.851Z,100.00
2023-11-07T10:32:02.047Z,100.00
2023-11-07T10:34:32.822Z,100.00
2023-11-07T10:37:02.099Z,100.00
2023-11-07T10:39:31.301Z,100.00
2023-11-07T10:42:17.991Z,100.00
2023-11-07T10:44:49.575Z,100.00
2023-11-07T10:47:21.483Z,100.00
2023-11-07T10:49:57.367Z,100.00
2023-11-07T10:52:26.006Z,100.00
2023-11-07T10:54:55.166Z,100.00
2023-11-07T10:57:28.143Z,100.00
2023-11-07T11:00:06.925Z,100.00
2023-11-07T11:02:35.856Z,100.00
2023-11-07T11:05:12.238Z,98.44
2023-11-07T11:07:50.684Z,96.47
2023-11-07T11:10:23.327Z,96.97
2023-11-07T11:12:52.977Z,93.67
2023-11-07T11:15:21.811Z,95.67
2023-11-07T11:17:59.140Z,96.73
2023-11-07T11:20:45.557Z,95.83
2023-11-07T11:23:30.856Z,95.19
2023-11-07T11:26:20.150Z,95.93
2023-11-07T11:28:48.750Z,97.85
2023-11-07T11:31:22.003Z,96.88
2023-11-07T11:33:52.598Z,99.90
2023-11-07T11:36:40.716Z,100.00
2023-11-07T11:39:47.584Z,98.13
2023-11-07T11:42:17.477Z,96.47
2023-11-07T11:44:46.469Z,96.15
2023-11-07T11:47:53.167Z,98.87
2023-11-07T11:50:22.458Z,100.00
2023-11-07T11:52:55.378Z,100.00
2023-11-07T11:55:23.764Z,99.58
2023-11-07T11:58:20.517Z,96.54
2023-11-07T12:00:53.211Z,97.83
2023-11-07T12:03:22.204Z,100.00
2023-11-07T12:06:05.308Z,100.00
2023-11-07T12:08:42.433Z,100.00
2023-11-07T12:11:12.014Z,97.80
2023-11-07T12:13:42.193Z,86.60
2023-11-07T12:16:19.846Z,77.13
2023-11-07T12:18:51.930Z,77.86
2023-11-07T12:21:29.200Z,75.92
2023-11-07T12:24:02.749Z,75.88
2023-11-07T12:26:42.870Z,81.46
2023-11-07T12:29:11.439Z,86.64
2023-11-07T12:31:41.295Z,92.21
2023-11-07T12:34:10.510Z,93.65
2023-11-07T12:36:41.582Z,96.20
2023-11-07T12:39:13.591Z,93.62
2023-11-07T12:41:42.280Z,95.18
2023-11-07T12:44:17.475Z,94.23
2023-11-07T12:46:47.168Z,91.95
2023-11-07T12:49:19.680Z,93.71
2023-11-07T12:51:48.769Z,91.67
2023-11-07T12:54:26.908Z,94.11
2023-11-07T12:56:55.601Z,92.98
2023-11-07T12:59:24.141Z,92.56
2023-11-07T13:01:55.602Z,91.94
2023-11-07T13:04:24.288Z,90.47
2023-11-07T13:06:55.532Z,91.48
2023-11-07T13:09:32.025Z,92.01
2023-11-07T13:12:11.577Z,91.97
2023-11-07T13:14:41.315Z,91.52
2023-11-07T13:17:12.868Z,90.61
2023-11-07T13:19:41.521Z,91.74
2023-11-07T13:22:11.135Z,89.64
2023-11-07T13:24:41.143Z,91.52
2023-11-07T13:27:09.668Z,90.12
2023-11-07T13:29:38.033Z,92.00
2023-11-07T13:32:07.553Z,90.72
2023-11-07T13:34:36.588Z,93.73
2023-11-07T13:37:06.389Z,91.56
2023-11-07T13:39:34.727Z,90.41
2023-11-07T13:42:05.853Z,89.12
2023-11-07T13:44:35.406Z,88.54
2023-11-07T13:47:04.160Z,88.24
2023-11-07T13:49:33.665Z,89.25
2023-11-07T13:52:03.435Z,87.49
2023-11-07T13:54:31.972Z,80.83
2023-11-07T13:57:00.909Z,76.85
2023-11-07T13:59:32.405Z,76.96
2023-11-07T14:02:00.999Z,78.83
2023-11-07T14:04:29.523Z,84.50
2023-11-07T14:06:57.932Z,86.56
2023-11-07T14:09:26.343Z,88.35
2023-11-07T14:11:54.774Z,89.95
2023-11-07T14:14:23.492Z,91.75
2023-11-07T14:16:54.574Z,91.21
2023-11-07T14:19:23.523Z,92.61
2023-11-07T14:21:52.029Z,93.01
2023-11-07T14:24:20.453Z,92.82
2023-11-07T14:26:49.096Z,91.91
2023-11-07T14:29:34.106Z,92.00
2023-11-07T14:32:09.781Z,92.88
2023-11-07T14:34:38.286Z,93.32
2023-11-07T14:37:06.883Z,94.24
2023-11-07T14:39:35.628Z,94.91
2023-11-07T14:42:07.538Z,94.67
2023-11-07T14:44:35.903Z,95.35
2023-11-07T14:47:04.510Z,96.05
2023-11-07T14:49:35.179Z,96.07
2023-11-07T14:52:07.926Z,95.90
2023-11-07T14:54:37.604Z,95.59
2023-11-07T14:57:09.538Z,93.84
2023-11-07T14:59:38.386Z,99.68
2023-11-07T15:02:14.705Z,100.00
2023-11-07T15:04:52.367Z,100.00
2023-11-07T15:07:20.828Z,100.00
2023-11-07T15:09:49.146Z,100.00
2023-11-07T15:12:17.636Z,100.00
2023-11-07T15:14:47.208Z,100.00
2023-11-07T15:17:15.632Z,100.00
2023-11-07T15:19:44.070Z,100.00
2023-11-07T15:22:14.004Z,100.00
2023-11-07T15:24:42.849Z,100.00
2023-11-07T15:27:11.311Z,100.00
2023-11-07T15:29:39.777Z,100.00
2023-11-07T15:32:11.780Z,100.00
2023-11-07T15:34:40.245Z,100.00
2023-11-07T15:37:08.796Z,100.00
2023-11-07T15:39:38.565Z,100.00
2023-11-07T15:42:08.836Z,100.00
2023-11-07T15:44:37.360Z,100.00
2023-11-07T15:47:06.242Z,100.00
2023-11-07T15:49:34.776Z,100.00
2023-11-07T15:52:03.491Z,100.00
2023-11-07T15:54:32.865Z,100.00
2023-11-07T15:57:02.638Z,100.00
2023-11-07T15:59:31.584Z,100.00
2023-11-07T16:02:00.457Z,100.00
2023-11-07T16:04:29.274Z,100.00
2023-11-07T16:06:57.894Z,100.00
2023-11-07T16:09:26.616Z,100.00
2023-11-07T16:11:55.123Z,100.00
2023-11-07T16:14:25.176Z,100.00
2023-11-07T16:16:53.558Z,100.00
2023-11-07T16:19:22.796Z,100.00
2023-11-07T16:21:55.548Z,100.00
2023-11-07T16:24:24.513Z,100.00
2023-11-07T16:26:53.147Z,100.00
2023-11-07T16:29:23.232Z,100.00
2023-11-07T16:31:53.689Z,100.00
2023-11-07T16:34:23.358Z,100.00
2023-11-07T16:36:52.609Z,100.00
2023-11-07T16:39:21.431Z,100.00
2023-11-07T16:41:50.257Z,100.00
2023-11-07T16:44:18.842Z,100.00
2023-11-07T16:46:47.464Z,100.00
2023-11-07T16:49:18.275Z,100.00
2023-11-07T16:51:46.701Z,100.00
2023-11-07T16:54:15.109Z,100.00
2023-11-07T16:56:43.550Z,100.00
2023-11-07T16:59:12.645Z,100.00
2023-11-07T17:01:41.106Z,100.00
2023-11-07T17:04:10.391Z,100.00
2023-11-07T17:06:40.673Z,100.00
2023-11-07T17:09:10.443Z,100.00
2023-11-07T17:11:39.678Z,100.00
2023-11-07T17:14:11.038Z,100.00
2023-11-07T17:16:40.174Z,100.00
2023-11-07T17:19:08.844Z,100.00
2023-11-07T17:21:37.249Z,100.00
2023-11-07T17:24:08.495Z,100.00
2023-11-07T17:26:37.171Z,100.00
2023-11-07T17:29:07.953Z,100.00
2023-11-07T17:31:36.462Z,100.00
2023-11-07T17:34:08.552Z,100.00
2023-11-07T17:36:37.428Z,100.00
2023-11-07T17:39:15.019Z,100.00
2023-11-07T17:41:45.843Z,100.00
2023-11-07T17:44:15.764Z,100.00
2023-11-07T17:46:45.992Z,100.00
2023-11-07T17:49:17.201Z,100.00
2023-11-07T17:51:46.387Z,100.00
2023-11-07T17:54:17.325Z,100.00
2023-11-07T17:56:45.867Z,100.00
2023-11-07T17:59:14.474Z,100.00
2023-11-07T18:01:43.191Z,100.00
2023-11-07T18:04:11.741Z,100.00
2023-11-07T18:06:42.340Z,100.00
2023-11-07T18:09:13.996Z,100.00
2023-11-07T18:11:46.309Z,100.00
2023-11-07T18:14:15.434Z,100.00
2023-11-07T18:16:44.629Z,100.00
2023-11-07T18:19:13.422Z,100.00
2023-11-07T18:21:44.866Z,100.00
2023-11-07T18:24:13.494Z,100.00
2023-11-07T18:26:49.492Z,100.00
2023-11-07T18:29:18.178Z,100.00
2023-11-07T18:31:47.072Z,100.00
2023-11-07T18:34:22.633Z,100.00
2023-11-07T18:37:01.056Z,100.00
2023-11-07T18:39:30.420Z,100.00
2023-11-07T18:42:01.133Z,100.00
2023-11-07T18:44:35.357Z,100.00
2023-11-07T18:47:04.357Z,100.00
2023-11-07T18:49:33.597Z,100.00
2023-11-07T18:52:03.035Z,100.00
2023-11-07T18:54:31.806Z,100.00
2023-11-07T18:57:02.841Z,100.00
2023-11-07T18:59:36.964Z,100.00
2023-11-07T19:02:07.826Z,100.00
2023-11-07T19:04:38.384Z,100.00
2023-11-07T19:07:08.176Z,100.00
2023-11-07T19:09:37.568Z,100.00
2023-11-07T19:12:08.534Z,100.00
2023-11-07T19:14:39.785Z,100.00
2023-11-07T19:17:08.853Z,100.00
2023-11-07T19:19:38.065Z,100.00
2023-11-07T19:22:06.682Z,100.00
2023-11-07T19:24:35.394Z,100.00
2023-11-07T19:27:04.699Z,100.00
2023-11-07T19:29:34.862Z,100.00
2023-11-07T19:32:04.044Z,100.00
2023-11-07T19:34:34.575Z,100.00
2023-11-07T19:37:03.703Z,100.00
2023-11-07T19:39:35.573Z,100.00
2023-11-07T19:42:05.070Z,100.00
2023-11-07T19:44:36.283Z,100.00
2023-11-07T19:47:05.117Z,100.00
2023-11-07T19:49:33.893Z,100.00
2023-11-07T19:52:03.589Z,100.00
2023-11-07T19:54:32.157Z,100.00
2023-11-07T19:57:01.448Z,100.00
2023-11-07T19:59:29.771Z,100.00
2023-11-07T20:02:00.091Z,100.00
2023-11-07T20:04:28.723Z,100.00
2023-11-07T20:06:57.229Z,100.00
2023-11-07T20:09:25.634Z,100.00
2023-11-07T20:11:54.017Z,100.00
2023-11-07T20:14:23.107Z,100.00
2023-11-07T20:16:55.449Z,100.00
2023-11-07T20:19:26.405Z,100.00
2023-11-07T20:21:54.773Z,100.00
2023-11-07T20:24:23.125Z,100.00
2023-11-07T20:26:51.453Z,100.00
2023-11-07T20:29:22.066Z,100.00
2023-11-07T20:31:51.800Z,100.00
2023-11-07T20:34:20.326Z,100.00
2023-11-07T20:36:50.122Z,100.00
2023-11-07T20:39:19.735Z,100.00
2023-11-07T20:41:48.222Z,100.00
2023-11-07T20:44:17.067Z,100.00
2023-11-07T20:46:45.757Z,100.00
2023-11-07T20:49:14.326Z,100.00
2023-11-07T20:51:42.993Z,100.00
2023-11-07T20:54:13.250Z,100.00
2023-11-07T20:56:41.566Z,100.00
2023-11-07T20:59:13.211Z,100.00
2023-11-07T21:01:44.456Z,100.00
2023-11-07T21:04:13.285Z,100.00
2023-11-07T21:06:41.628Z,100.00
2023-11-07T21:09:10.040Z,100.00
2023-11-07T21:11:43.357Z,100.00
2023-11-07T21:14:11.794Z,100.00
2023-11-07T21:16:40.158Z,100.00
2023-11-07T21:19:11.891Z,100.00
2023-11-07T21:21:40.286Z,100.00
2023-11-07T21:24:09.218Z,100.00
2023-11-07T21:26:38.911Z,100.00
2023-11-07T21:29:08.317Z,100.00
2023-11-07T21:31:37.398Z,100.00
2023-11-07T21:34:07.768Z,100.00
2023-11-07T21:36:36.304Z,100.00
2023-11-07T21:39:07.654Z,100.00
2023-11-07T21:41:36.137Z,100.00
2023-11-07T21:44:06.149Z,100.00
2023-11-07T21:46:35.024Z,100.00
2023-11-07T21:49:03.601Z,100.00
2023-11-07T21:51:32.842Z,100.00
2023-11-07T21:54:03.227Z,100.00
2023-11-07T21:56:32.663Z,100.00
2023-11-07T21:59:01.801Z,100.00
2023-11-07T22:01:34.357Z,100.00
2023-11-07T22:04:02.924Z,100.00
2023-11-07T22:06:32.738Z,100.00
2023-11-07T22:09:01.226Z,100.00
2023-11-07T22:11:29.517Z,100.00
2023-11-07T22:13:58.256Z,100.00
2023-11-07T22:16:27.661Z,100.00
2023-11-07T22:18:57.435Z,100.00
2023-11-07T22:21:26.704Z,100.00
2023-11-07T22:23:55.142Z,100.00
2023-11-07T22:26:23.548Z,100.00
2023-11-07T22:28:52.233Z,100.00
2023-11-07T22:31:21.224Z,100.00
2023-11-07T22:33:49.820Z,100.00
2023-11-07T22:36:19.706Z,100.00
2023-11-07T22:38:48.590Z,100.00
2023-11-07T22:41:17.497Z,100.00
2023-11-07T22:43:45.922Z,100.00
2023-11-07T22:46:14.248Z,100.00
2023-11-07T22:48:44.717Z,100.00
2023-11-07T22:51:13.139Z,100.00
2023-11-07T22:53:43.092Z,100.00
2023-11-07T22:56:12.133Z,100.00
2023-11-07T22:58:40.602Z,100.00
2023-11-07T23:01:09.817Z,100.00
2023-11-07T23:03:39.674Z,100.00
2023-11-07T23:06:09.213Z,100.00
2023-11-07T23:08:39.200Z,100.00
2023-11-07T23:11:09.491Z,100.00
2023-11-07T23:13:38.399Z,100.00
2023-11-07T23:16:08.414Z,100.00
2023-11-07T23:18:37.234Z,100.00
2023-11-07T23:21:06.664Z,100.00
2023-11-07T23:23:35.993Z,100.00
2023-11-07T23:26:05.064Z,100.00
2023-11-07T23:28:34.910Z,100.00
2023-11-07T23:31:03.790Z,100.00
2023-11-07T23:33:32.340Z,100.00
2023-11-07T23:36:01.414Z,100.00
2023-11-07T23:38:29.738Z,100.00
2023-11-07T23:40:58.334Z,100.00
2023-11-07T23:43:28.006Z,100.00
2023-11-07T23:45:57.981Z,100.00
2023-11-07T23:48:27.724Z,100.00
2023-11-07T23:50:56.455Z,100.00
2023-11-07T23:53:25.278Z,100.00
2023-11-07T23:55:53.808Z,100.00
2023-11-07T23:58:22.536Z,100.00
